sensor_id;sensor_type;location;lat;lon;timestamp;temperature;humidity
68011;DHT22;54794;48.348;7.878;2023-04-24T00:01:57;15.50;56.30
68011;DHT22;54794;48.348;7.878;2023-04-24T00:04:25;15.50;56.50
68011;DHT22;54794;48.348;7.878;2023-04-24T00:06:55;15.50;56.40
68011;DHT22;54794;48.348;7.878;2023-04-24T00:09:23;15.50;56.60
68011;DHT22;54794;48.348;7.878;2023-04-24T00:11:53;15.50;56.50
68011;DHT22;54794;48.348;7.878;2023-04-24T00:14:24;15.50;56.50
68011;DHT22;54794;48.348;7.878;2023-04-24T00:16:57;15.50;56.40
68011;DHT22;54794;48.348;7.878;2023-04-24T00:19:29;15.50;56.40
68011;DHT22;54794;48.348;7.878;2023-04-24T00:22:03;15.50;56.80
68011;DHT22;54794;48.348;7.878;2023-04-24T00:24:30;15.50;56.60
68011;DHT22;54794;48.348;7.878;2023-04-24T00:27:06;15.50;56.50
68011;DHT22;54794;48.348;7.878;2023-04-24T00:29:36;15.50;57.30
68011;DHT22;54794;48.348;7.878;2023-04-24T00:32:06;15.50;56.80
68011;DHT22;54794;48.348;7.878;2023-04-24T00:34:33;15.50;56.90
68011;DHT22;54794;48.348;7.878;2023-04-24T00:37:04;15.50;56.90
68011;DHT22;54794;48.348;7.878;2023-04-24T00:39:32;15.50;56.90
68011;DHT22;54794;48.348;7.878;2023-04-24T00:42:02;15.50;57.00
68011;DHT22;54794;48.348;7.878;2023-04-24T00:44:29;15.50;57.30
68011;DHT22;54794;48.348;7.878;2023-04-24T00:46:59;15.40;57.00
68011;DHT22;54794;48.348;7.878;2023-04-24T00:49:33;15.40;56.90
68011;DHT22;54794;48.348;7.878;2023-04-24T00:52:00;15.40;57.00
68011;DHT22;54794;48.348;7.878;2023-04-24T00:54:27;15.40;57.00
68011;DHT22;54794;48.348;7.878;2023-04-24T00:56:54;15.40;57.00
68011;DHT22;54794;48.348;7.878;2023-04-24T00:59:23;15.50;57.00
68011;DHT22;54794;48.348;7.878;2023-04-24T01:01:51;15.40;57.30
68011;DHT22;54794;48.348;7.878;2023-04-24T01:04:24;15.40;57.20
68011;DHT22;54794;48.348;7.878;2023-04-24T01:06:55;15.40;57.20
68011;DHT22;54794;48.348;7.878;2023-04-24T01:09:26;15.40;57.40
68011;DHT22;54794;48.348;7.878;2023-04-24T01:11:54;15.40;57.50
68011;DHT22;54794;48.348;7.878;2023-04-24T01:14:24;15.40;57.60
68011;DHT22;54794;48.348;7.878;2023-04-24T01:16:59;15.50;57.50
68011;DHT22;54794;48.348;7.878;2023-04-24T01:19:34;15.40;57.60
68011;DHT22;54794;48.348;7.878;2023-04-24T01:22:08;15.40;57.60
68011;DHT22;54794;48.348;7.878;2023-04-24T01:24:42;15.40;57.50
68011;DHT22;54794;48.348;7.878;2023-04-24T01:27:18;15.40;57.70
68011;DHT22;54794;48.348;7.878;2023-04-24T01:29:49;15.40;58.00
68011;DHT22;54794;48.348;7.878;2023-04-24T01:32:18;15.40;57.80
68011;DHT22;54794;48.348;7.878;2023-04-24T01:34:56;15.40;58.00
68011;DHT22;54794;48.348;7.878;2023-04-24T01:37:23;15.30;58.00
68011;DHT22;54794;48.348;7.878;2023-04-24T01:39:52;15.30;57.80
68011;DHT22;54794;48.348;7.878;2023-04-24T01:42:20;15.30;58.00
68011;DHT22;54794;48.348;7.878;2023-04-24T01:44:52;15.30;57.90
68011;DHT22;54794;48.348;7.878;2023-04-24T01:47:20;15.30;58.30
68011;DHT22;54794;48.348;7.878;2023-04-24T01:49:48;15.30;58.00
68011;DHT22;54794;48.348;7.878;2023-04-24T01:52:17;15.30;58.50
68011;DHT22;54794;48.348;7.878;2023-04-24T01:54:45;15.30;57.80
68011;DHT22;54794;48.348;7.878;2023-04-24T01:57:12;15.30;57.80
68011;DHT22;54794;48.348;7.878;2023-04-24T01:59:42;15.30;58.00
68011;DHT22;54794;48.348;7.878;2023-04-24T02:02:09;15.20;58.20
68011;DHT22;54794;48.348;7.878;2023-04-24T02:04:42;15.20;58.00
68011;DHT22;54794;48.348;7.878;2023-04-24T02:07:09;15.20;58.10
68011;DHT22;54794;48.348;7.878;2023-04-24T02:09:38;15.20;58.20
68011;DHT22;54794;48.348;7.878;2023-04-24T02:12:11;15.20;58.30
68011;DHT22;54794;48.348;7.878;2023-04-24T02:14:38;15.20;58.40
68011;DHT22;54794;48.348;7.878;2023-04-24T02:17:11;15.20;58.40
68011;DHT22;54794;48.348;7.878;2023-04-24T02:19:42;15.20;58.40
68011;DHT22;54794;48.348;7.878;2023-04-24T02:22:09;15.20;58.50
68011;DHT22;54794;48.348;7.878;2023-04-24T02:24:39;15.20;58.40
68011;DHT22;54794;48.348;7.878;2023-04-24T02:27:06;15.20;58.40
68011;DHT22;54794;48.348;7.878;2023-04-24T02:29:33;15.20;58.50
68011;DHT22;54794;48.348;7.878;2023-04-24T02:32:02;15.10;58.50
68011;DHT22;54794;48.348;7.878;2023-04-24T02:34:33;15.10;58.40
68011;DHT22;54794;48.348;7.878;2023-04-24T02:37:00;15.10;58.50
68011;DHT22;54794;48.348;7.878;2023-04-24T02:39:28;15.10;58.60
68011;DHT22;54794;48.348;7.878;2023-04-24T02:42:00;15.10;58.70
68011;DHT22;54794;48.348;7.878;2023-04-24T02:44:30;15.10;59.00
68011;DHT22;54794;48.348;7.878;2023-04-24T02:47:02;15.00;58.70
68011;DHT22;54794;48.348;7.878;2023-04-24T02:49:30;15.10;58.80
68011;DHT22;54794;48.348;7.878;2023-04-24T02:52:02;15.00;58.80
68011;DHT22;54794;48.348;7.878;2023-04-24T02:54:29;15.00;59.10
68011;DHT22;54794;48.348;7.878;2023-04-24T02:57:01;15.00;59.50
68011;DHT22;54794;48.348;7.878;2023-04-24T02:59:27;15.00;59.20
68011;DHT22;54794;48.348;7.878;2023-04-24T03:01:55;15.00;59.00
68011;DHT22;54794;48.348;7.878;2023-04-24T03:04:23;15.00;59.00
68011;DHT22;54794;48.348;7.878;2023-04-24T03:06:54;15.00;59.10
68011;DHT22;54794;48.348;7.878;2023-04-24T03:09:24;14.90;59.10
68011;DHT22;54794;48.348;7.878;2023-04-24T03:11:51;14.90;59.10
68011;DHT22;54794;48.348;7.878;2023-04-24T03:14:17;14.90;59.70
68011;DHT22;54794;48.348;7.878;2023-04-24T03:16:44;14.90;59.40
68011;DHT22;54794;48.348;7.878;2023-04-24T03:19:47;14.90;59.30
68011;DHT22;54794;48.348;7.878;2023-04-24T03:22:19;14.90;59.30
68011;DHT22;54794;48.348;7.878;2023-04-24T03:25:17;14.90;59.50
68011;DHT22;54794;48.348;7.878;2023-04-24T03:27:45;14.80;59.80
68011;DHT22;54794;48.348;7.878;2023-04-24T03:30:17;14.80;59.50
68011;DHT22;54794;48.348;7.878;2023-04-24T03:32:44;14.90;59.70
68011;DHT22;54794;48.348;7.878;2023-04-24T03:35:11;14.80;59.70
68011;DHT22;54794;48.348;7.878;2023-04-24T03:37:42;14.80;59.70
68011;DHT22;54794;48.348;7.878;2023-04-24T03:40:11;14.80;59.80
68011;DHT22;54794;48.348;7.878;2023-04-24T03:42:38;14.90;59.90
68011;DHT22;54794;48.348;7.878;2023-04-24T03:45:13;14.80;59.90
68011;DHT22;54794;48.348;7.878;2023-04-24T03:47:39;14.90;59.90
68011;DHT22;54794;48.348;7.878;2023-04-24T03:50:07;14.90;59.90
68011;DHT22;54794;48.348;7.878;2023-04-24T03:52:38;14.90;60.00
68011;DHT22;54794;48.348;7.878;2023-04-24T03:55:06;14.80;59.90
68011;DHT22;54794;48.348;7.878;2023-04-24T03:57:36;14.90;59.90
68011;DHT22;54794;48.348;7.878;2023-04-24T04:00:06;14.90;60.00
68011;DHT22;54794;48.348;7.878;2023-04-24T04:02:34;15.00;60.00
68011;DHT22;54794;48.348;7.878;2023-04-24T04:05:03;14.90;60.00
68011;DHT22;54794;48.348;7.878;2023-04-24T04:07:31;14.90;60.00
68011;DHT22;54794;48.348;7.878;2023-04-24T04:10:00;14.90;60.00
68011;DHT22;54794;48.348;7.878;2023-04-24T04:12:28;14.90;60.00
68011;DHT22;54794;48.348;7.878;2023-04-24T04:15:00;14.90;59.90
68011;DHT22;54794;48.348;7.878;2023-04-24T04:17:27;14.90;59.90
68011;DHT22;54794;48.348;7.878;2023-04-24T04:19:54;14.90;59.90
68011;DHT22;54794;48.348;7.878;2023-04-24T04:22:28;14.90;59.90
68011;DHT22;54794;48.348;7.878;2023-04-24T04:24:54;14.80;59.80
68011;DHT22;54794;48.348;7.878;2023-04-24T04:27:25;14.80;59.80
68011;DHT22;54794;48.348;7.878;2023-04-24T04:29:55;14.70;59.70
68011;DHT22;54794;48.348;7.878;2023-04-24T04:32:31;14.80;59.80
68011;DHT22;54794;48.348;7.878;2023-04-24T04:35:03;14.80;59.90
68011;DHT22;54794;48.348;7.878;2023-04-24T04:37:32;14.70;59.80
68011;DHT22;54794;48.348;7.878;2023-04-24T04:40:05;14.70;59.90
68011;DHT22;54794;48.348;7.878;2023-04-24T04:42:33;14.70;59.90
68011;DHT22;54794;48.348;7.878;2023-04-24T04:45:06;14.70;60.40
68011;DHT22;54794;48.348;7.878;2023-04-24T04:47:38;14.70;59.90
68011;DHT22;54794;48.348;7.878;2023-04-24T04:50:09;14.70;59.90
68011;DHT22;54794;48.348;7.878;2023-04-24T04:52:42;14.70;59.90
68011;DHT22;54794;48.348;7.878;2023-04-24T04:55:09;14.60;60.00
68011;DHT22;54794;48.348;7.878;2023-04-24T04:57:37;14.60;59.90
68011;DHT22;54794;48.348;7.878;2023-04-24T05:00:05;14.60;59.90
68011;DHT22;54794;48.348;7.878;2023-04-24T05:02:33;14.60;60.00
68011;DHT22;54794;48.348;7.878;2023-04-24T05:05:00;14.60;60.00
68011;DHT22;54794;48.348;7.878;2023-04-24T05:07:30;14.60;60.00
68011;DHT22;54794;48.348;7.878;2023-04-24T05:10:14;14.60;60.10
68011;DHT22;54794;48.348;7.878;2023-04-24T05:12:41;14.60;59.90
68011;DHT22;54794;48.348;7.878;2023-04-24T05:15:11;14.60;60.00
68011;DHT22;54794;48.348;7.878;2023-04-24T05:17:38;14.60;60.00
68011;DHT22;54794;48.348;7.878;2023-04-24T05:20:07;14.60;60.00
68011;DHT22;54794;48.348;7.878;2023-04-24T05:22:34;14.60;60.00
68011;DHT22;54794;48.348;7.878;2023-04-24T05:25:02;14.60;60.10
68011;DHT22;54794;48.348;7.878;2023-04-24T05:27:29;14.60;60.10
68011;DHT22;54794;48.348;7.878;2023-04-24T05:29:56;14.60;60.10
68011;DHT22;54794;48.348;7.878;2023-04-24T05:32:23;14.60;60.10
68011;DHT22;54794;48.348;7.878;2023-04-24T05:34:50;14.60;60.10
68011;DHT22;54794;48.348;7.878;2023-04-24T05:37:17;14.50;60.10
68011;DHT22;54794;48.348;7.878;2023-04-24T05:39:44;14.50;60.10
68011;DHT22;54794;48.348;7.878;2023-04-24T05:42:15;14.50;60.10
68011;DHT22;54794;48.348;7.878;2023-04-24T05:44:42;14.50;60.10
68011;DHT22;54794;48.348;7.878;2023-04-24T05:47:09;14.50;60.20
68011;DHT22;54794;48.348;7.878;2023-04-24T05:49:37;14.50;60.10
68011;DHT22;54794;48.348;7.878;2023-04-24T05:52:06;14.50;60.20
68011;DHT22;54794;48.348;7.878;2023-04-24T05:54:35;14.50;60.20
68011;DHT22;54794;48.348;7.878;2023-04-24T05:57:05;14.40;59.80
68011;DHT22;54794;48.348;7.878;2023-04-24T05:59:37;14.40;59.80
68011;DHT22;54794;48.348;7.878;2023-04-24T06:02:08;14.30;59.70
68011;DHT22;54794;48.348;7.878;2023-04-24T06:04:35;14.30;59.70
68011;DHT22;54794;48.348;7.878;2023-04-24T06:07:02;14.20;59.70
68011;DHT22;54794;48.348;7.878;2023-04-24T06:09:29;14.20;59.90
68011;DHT22;54794;48.348;7.878;2023-04-24T06:11:56;14.20;60.60
68011;DHT22;54794;48.348;7.878;2023-04-24T06:14:23;14.20;60.10
68011;DHT22;54794;48.348;7.878;2023-04-24T06:16:50;14.20;60.80
68011;DHT22;54794;48.348;7.878;2023-04-24T06:19:17;14.20;59.90
68011;DHT22;54794;48.348;7.878;2023-04-24T06:21:44;14.20;59.90
68011;DHT22;54794;48.348;7.878;2023-04-24T06:24:14;14.10;60.00
68011;DHT22;54794;48.348;7.878;2023-04-24T06:26:43;14.10;60.20
68011;DHT22;54794;48.348;7.878;2023-04-24T06:29:10;14.10;60.10
68011;DHT22;54794;48.348;7.878;2023-04-24T06:31:37;14.10;60.20
68011;DHT22;54794;48.348;7.878;2023-04-24T06:34:04;14.20;60.20
68011;DHT22;54794;48.348;7.878;2023-04-24T06:36:31;14.20;60.30
68011;DHT22;54794;48.348;7.878;2023-04-24T06:39:01;14.20;60.30
68011;DHT22;54794;48.348;7.878;2023-04-24T06:41:28;14.20;60.50
68011;DHT22;54794;48.348;7.878;2023-04-24T06:43:55;14.20;60.40
68011;DHT22;54794;48.348;7.878;2023-04-24T06:46:22;14.30;60.80
68011;DHT22;54794;48.348;7.878;2023-04-24T06:48:53;14.30;60.20
68011;DHT22;54794;48.348;7.878;2023-04-24T06:51:24;14.40;60.30
68011;DHT22;54794;48.348;7.878;2023-04-24T06:53:53;14.40;60.30
68011;DHT22;54794;48.348;7.878;2023-04-24T06:56:20;14.40;60.30
68011;DHT22;54794;48.348;7.878;2023-04-24T06:58:48;14.50;60.40
68011;DHT22;54794;48.348;7.878;2023-04-24T07:01:16;14.50;60.00
68011;DHT22;54794;48.348;7.878;2023-04-24T07:03:46;14.60;60.10
68011;DHT22;54794;48.348;7.878;2023-04-24T07:06:13;14.60;60.10
68011;DHT22;54794;48.348;7.878;2023-04-24T07:08:41;14.70;59.90
68011;DHT22;54794;48.348;7.878;2023-04-24T07:11:08;14.70;59.80
68011;DHT22;54794;48.348;7.878;2023-04-24T07:13:35;14.80;60.60
68011;DHT22;54794;48.348;7.878;2023-04-24T07:16:02;14.80;59.60
68011;DHT22;54794;48.348;7.878;2023-04-24T07:18:29;14.90;59.30
68011;DHT22;54794;48.348;7.878;2023-04-24T07:20:57;14.90;59.20
68011;DHT22;54794;48.348;7.878;2023-04-24T07:23:24;14.90;59.10
68011;DHT22;54794;48.348;7.878;2023-04-24T07:25:51;15.00;59.10
68011;DHT22;54794;48.348;7.878;2023-04-24T07:28:18;15.00;58.70
68011;DHT22;54794;48.348;7.878;2023-04-24T07:30:45;15.00;58.50
68011;DHT22;54794;48.348;7.878;2023-04-24T07:33:12;14.90;58.20
68011;DHT22;54794;48.348;7.878;2023-04-24T07:35:40;14.90;58.00
68011;DHT22;54794;48.348;7.878;2023-04-24T07:38:06;14.90;57.90
68011;DHT22;54794;48.348;7.878;2023-04-24T07:40:36;14.80;57.70
68011;DHT22;54794;48.348;7.878;2023-04-24T07:43:03;14.80;57.80
68011;DHT22;54794;48.348;7.878;2023-04-24T07:45:34;14.80;57.80
68011;DHT22;54794;48.348;7.878;2023-04-24T07:48:04;14.70;57.60
68011;DHT22;54794;48.348;7.878;2023-04-24T07:50:32;14.60;57.60
68011;DHT22;54794;48.348;7.878;2023-04-24T07:53:02;14.60;57.50
68011;DHT22;54794;48.348;7.878;2023-04-24T07:55:29;14.60;57.70
68011;DHT22;54794;48.348;7.878;2023-04-24T07:57:56;14.60;57.90
68011;DHT22;54794;48.348;7.878;2023-04-24T08:00:23;14.50;57.50
68011;DHT22;54794;48.348;7.878;2023-04-24T08:02:50;14.50;57.40
68011;DHT22;54794;48.348;7.878;2023-04-24T08:05:20;14.50;57.50
68011;DHT22;54794;48.348;7.878;2023-04-24T08:07:47;14.50;57.60
68011;DHT22;54794;48.348;7.878;2023-04-24T08:10:16;14.50;58.30
68011;DHT22;54794;48.348;7.878;2023-04-24T08:12:43;14.40;57.60
68011;DHT22;54794;48.348;7.878;2023-04-24T08:15:10;14.50;57.70
68011;DHT22;54794;48.348;7.878;2023-04-24T08:17:37;14.50;57.90
68011;DHT22;54794;48.348;7.878;2023-04-24T08:20:04;14.50;57.90
68011;DHT22;54794;48.348;7.878;2023-04-24T08:22:32;14.60;57.90
68011;DHT22;54794;48.348;7.878;2023-04-24T08:25:00;14.70;57.40
68011;DHT22;54794;48.348;7.878;2023-04-24T08:27:27;14.70;57.20
68011;DHT22;54794;48.348;7.878;2023-04-24T08:29:54;14.70;57.50
68011;DHT22;54794;48.348;7.878;2023-04-24T08:32:21;14.80;57.20
68011;DHT22;54794;48.348;7.878;2023-04-24T08:34:56;14.80;57.20
68011;DHT22;54794;48.348;7.878;2023-04-24T08:37:27;14.80;57.60
68011;DHT22;54794;48.348;7.878;2023-04-24T08:39:54;15.00;57.30
68011;DHT22;54794;48.348;7.878;2023-04-24T08:42:22;15.00;56.80
68011;DHT22;54794;48.348;7.878;2023-04-24T08:44:56;15.10;56.60
68011;DHT22;54794;48.348;7.878;2023-04-24T08:47:25;15.20;56.20
68011;DHT22;54794;48.348;7.878;2023-04-24T08:49:56;15.30;56.00
68011;DHT22;54794;48.348;7.878;2023-04-24T08:52:25;15.30;55.30
68011;DHT22;54794;48.348;7.878;2023-04-24T08:54:53;15.40;55.60
68011;DHT22;54794;48.348;7.878;2023-04-24T08:57:21;15.40;55.50
68011;DHT22;54794;48.348;7.878;2023-04-24T08:59:49;15.50;54.90
68011;DHT22;54794;48.348;7.878;2023-04-24T10:02:02;14.50;54.30
68011;DHT22;54794;48.348;7.878;2023-04-24T10:04:29;14.60;55.00
68011;DHT22;54794;48.348;7.878;2023-04-24T10:06:57;14.60;55.60
68011;DHT22;54794;48.348;7.878;2023-04-24T10:09:25;14.70;55.80
68011;DHT22;54794;48.348;7.878;2023-04-24T10:11:54;14.70;55.40
68011;DHT22;54794;48.348;7.878;2023-04-24T10:14:23;14.70;55.30
68011;DHT22;54794;48.348;7.878;2023-04-24T10:16:53;14.70;54.80
68011;DHT22;54794;48.348;7.878;2023-04-24T10:19:25;14.70;54.60
68011;DHT22;54794;48.348;7.878;2023-04-24T10:21:53;14.70;54.90
68011;DHT22;54794;48.348;7.878;2023-04-24T10:24:22;14.70;55.30
68011;DHT22;54794;48.348;7.878;2023-04-24T10:26:49;14.70;54.90
68011;DHT22;54794;48.348;7.878;2023-04-24T10:29:18;14.60;54.80
68011;DHT22;54794;48.348;7.878;2023-04-24T10:31:46;14.60;55.00
68011;DHT22;54794;48.348;7.878;2023-04-24T10:34:15;14.60;55.10
68011;DHT22;54794;48.348;7.878;2023-04-24T10:36:53;14.60;55.20
68011;DHT22;54794;48.348;7.878;2023-04-24T10:39:24;14.50;55.20
68011;DHT22;54794;48.348;7.878;2023-04-24T10:41:54;14.50;55.20
68011;DHT22;54794;48.348;7.878;2023-04-24T10:44:24;14.50;55.40
68011;DHT22;54794;48.348;7.878;2023-04-24T10:46:55;14.50;55.20
68011;DHT22;54794;48.348;7.878;2023-04-24T10:49:30;14.50;55.40
68011;DHT22;54794;48.348;7.878;2023-04-24T10:52:04;14.50;55.40
68011;DHT22;54794;48.348;7.878;2023-04-24T10:54:41;14.50;55.20
68011;DHT22;54794;48.348;7.878;2023-04-24T10:59:51;14.50;55.00
68011;DHT22;54794;48.348;7.878;2023-04-24T11:46:23;14.60;54.50
68011;DHT22;54794;48.348;7.878;2023-04-24T11:48:57;14.70;54.30
68011;DHT22;54794;48.348;7.878;2023-04-24T11:51:29;14.70;54.30
68011;DHT22;54794;48.348;7.878;2023-04-24T11:54:18;14.70;54.50
68011;DHT22;54794;48.348;7.878;2023-04-24T11:56:47;14.70;54.60
68011;DHT22;54794;48.348;7.878;2023-04-24T11:59:20;14.70;54.60
68011;DHT22;54794;48.348;7.878;2023-04-24T12:10:10;14.90;54.50
68011;DHT22;54794;48.348;7.878;2023-04-24T12:45:40;15.30;53.50
68011;DHT22;54794;48.348;7.878;2023-04-24T12:48:10;15.20;53.40
68011;DHT22;54794;48.348;7.878;2023-04-24T12:50:38;15.20;53.90
68011;DHT22;54794;48.348;7.878;2023-04-24T12:53:13;15.20;54.00
68011;DHT22;54794;48.348;7.878;2023-04-24T12:55:42;15.20;54.20
68011;DHT22;54794;48.348;7.878;2023-04-24T12:58:13;15.30;54.30
68011;DHT22;54794;48.348;7.878;2023-04-24T13:00:58;15.30;54.40
68011;DHT22;54794;48.348;7.878;2023-04-24T13:05:03;15.30;54.20
68011;DHT22;54794;48.348;7.878;2023-04-24T13:07:30;15.40;53.80
68011;DHT22;54794;48.348;7.878;2023-04-24T13:10:13;15.40;54.10
68011;DHT22;54794;48.348;7.878;2023-04-24T13:12:43;15.40;53.70
68011;DHT22;54794;48.348;7.878;2023-04-24T13:15:12;15.50;53.80
68011;DHT22;54794;48.348;7.878;2023-04-24T13:17:40;15.50;53.60
68011;DHT22;54794;48.348;7.878;2023-04-24T13:20:09;15.50;53.20
68011;DHT22;54794;48.348;7.878;2023-04-24T13:22:37;15.50;53.50
68011;DHT22;54794;48.348;7.878;2023-04-24T13:25:04;15.50;53.80
68011;DHT22;54794;48.348;7.878;2023-04-24T13:27:39;15.50;53.70
68011;DHT22;54794;48.348;7.878;2023-04-24T13:30:07;15.50;53.60
68011;DHT22;54794;48.348;7.878;2023-04-24T13:32:34;15.50;53.60
68011;DHT22;54794;48.348;7.878;2023-04-24T13:35:06;15.60;53.50
68011;DHT22;54794;48.348;7.878;2023-04-24T13:37:34;15.60;53.60
68011;DHT22;54794;48.348;7.878;2023-04-24T13:40:04;15.60;53.50
68011;DHT22;54794;48.348;7.878;2023-04-24T13:42:38;15.60;53.50
68011;DHT22;54794;48.348;7.878;2023-04-24T13:45:13;15.60;53.40
68011;DHT22;54794;48.348;7.878;2023-04-24T13:47:51;15.50;53.50
68011;DHT22;54794;48.348;7.878;2023-04-24T13:50:21;15.70;53.50
68011;DHT22;54794;48.348;7.878;2023-04-24T13:52:50;15.80;53.50
68011;DHT22;54794;48.348;7.878;2023-04-24T13:55:17;15.80;53.50
68011;DHT22;54794;48.348;7.878;2023-04-24T13:57:50;15.90;53.40
68011;DHT22;54794;48.348;7.878;2023-04-24T14:00:33;15.90;53.20
68011;DHT22;54794;48.348;7.878;2023-04-24T14:03:03;15.90;53.10
68011;DHT22;54794;48.348;7.878;2023-04-24T14:05:38;15.90;53.10
68011;DHT22;54794;48.348;7.878;2023-04-24T14:08:08;16.00;53.10
68011;DHT22;54794;48.348;7.878;2023-04-24T14:10:36;16.00;53.20
68011;DHT22;54794;48.348;7.878;2023-04-24T14:13:08;16.10;53.20
68011;DHT22;54794;48.348;7.878;2023-04-24T14:15:45;16.10;53.20
68011;DHT22;54794;48.348;7.878;2023-04-24T14:18:15;16.10;53.00
68011;DHT22;54794;48.348;7.878;2023-04-24T14:20:45;16.20;53.40
68011;DHT22;54794;48.348;7.878;2023-04-24T14:23:29;16.30;53.50
68011;DHT22;54794;48.348;7.878;2023-04-24T14:26:14;16.30;52.60
68011;DHT22;54794;48.348;7.878;2023-04-24T14:28:56;16.40;53.30
68011;DHT22;54794;48.348;7.878;2023-04-24T14:31:43;16.60;53.20
68011;DHT22;54794;48.348;7.878;2023-04-24T14:34:17;16.70;53.20
68011;DHT22;54794;48.348;7.878;2023-04-24T14:36:59;16.80;53.60
68011;DHT22;54794;48.348;7.878;2023-04-24T14:39:31;17.10;54.30
68011;DHT22;54794;48.348;7.878;2023-04-24T14:41:58;17.30;54.20
68011;DHT22;54794;48.348;7.878;2023-04-24T14:44:35;17.50;53.80
68011;DHT22;54794;48.348;7.878;2023-04-24T14:47:02;17.80;53.70
68011;DHT22;54794;48.348;7.878;2023-04-24T14:49:48;18.00;53.20
68011;DHT22;54794;48.348;7.878;2023-04-24T14:52:18;18.20;52.40
68011;DHT22;54794;48.348;7.878;2023-04-24T14:54:45;18.30;52.20
68011;DHT22;54794;48.348;7.878;2023-04-24T14:57:12;18.30;52.00
68011;DHT22;54794;48.348;7.878;2023-04-24T14:59:50;18.30;51.80
68011;DHT22;54794;48.348;7.878;2023-04-24T15:02:17;18.40;51.50
68011;DHT22;54794;48.348;7.878;2023-04-24T15:04:50;18.30;51.40
68011;DHT22;54794;48.348;7.878;2023-04-24T15:07:56;18.30;51.00
68011;DHT22;54794;48.348;7.878;2023-04-24T15:10:26;18.30;50.30
68011;DHT22;54794;48.348;7.878;2023-04-24T15:12:56;18.30;51.00
68011;DHT22;54794;48.348;7.878;2023-04-24T15:15:26;18.30;51.10
68011;DHT22;54794;48.348;7.878;2023-04-24T15:17:56;18.20;50.50
68011;DHT22;54794;48.348;7.878;2023-04-24T15:20:28;18.20;50.80
68011;DHT22;54794;48.348;7.878;2023-04-24T15:23:20;18.20;50.80
68011;DHT22;54794;48.348;7.878;2023-04-24T15:25:50;18.20;50.70
68011;DHT22;54794;48.348;7.878;2023-04-24T15:28:45;18.20;50.50
68011;DHT22;54794;48.348;7.878;2023-04-24T15:31:19;18.10;50.20
68011;DHT22;54794;48.348;7.878;2023-04-24T15:33:49;17.90;50.30
68011;DHT22;54794;48.348;7.878;2023-04-24T15:36:29;18.00;50.80
68011;DHT22;54794;48.348;7.878;2023-04-24T15:38:56;18.40;51.80
68011;DHT22;54794;48.348;7.878;2023-04-24T15:41:25;18.40;51.70
68011;DHT22;54794;48.348;7.878;2023-04-24T15:43:58;18.30;50.60
68011;DHT22;54794;48.348;7.878;2023-04-24T15:46:35;18.30;50.40
68011;DHT22;54794;48.348;7.878;2023-04-24T15:49:02;18.30;50.30
68011;DHT22;54794;48.348;7.878;2023-04-24T15:51:32;18.30;50.50
68011;DHT22;54794;48.348;7.878;2023-04-24T15:54:08;18.30;50.70
68011;DHT22;54794;48.348;7.878;2023-04-24T15:57:13;18.30;50.00
68011;DHT22;54794;48.348;7.878;2023-04-24T16:00:06;18.20;49.20
68011;DHT22;54794;48.348;7.878;2023-04-24T16:02:43;18.10;49.20
68011;DHT22;54794;48.348;7.878;2023-04-24T16:05:12;18.10;50.00
68011;DHT22;54794;48.348;7.878;2023-04-24T16:07:46;18.00;49.90
68011;DHT22;54794;48.348;7.878;2023-04-24T16:10:18;17.90;49.90
68011;DHT22;54794;48.348;7.878;2023-04-24T16:13:01;17.90;49.80
68011;DHT22;54794;48.348;7.878;2023-04-24T16:15:59;17.80;49.90
68011;DHT22;54794;48.348;7.878;2023-04-24T16:18:52;17.70;49.40
68011;DHT22;54794;48.348;7.878;2023-04-24T16:21:20;17.70;49.80
68011;DHT22;54794;48.348;7.878;2023-04-24T16:23:46;17.70;49.90
68011;DHT22;54794;48.348;7.878;2023-04-24T16:26:13;17.50;50.30
68011;DHT22;54794;48.348;7.878;2023-04-24T16:28:41;17.50;49.90
68011;DHT22;54794;48.348;7.878;2023-04-24T16:31:08;17.40;50.20
68011;DHT22;54794;48.348;7.878;2023-04-24T16:33:36;17.30;50.00
68011;DHT22;54794;48.348;7.878;2023-04-24T16:36:20;17.30;50.10
68011;DHT22;54794;48.348;7.878;2023-04-24T16:38:48;17.20;50.20
68011;DHT22;54794;48.348;7.878;2023-04-24T16:41:16;17.10;50.20
68011;DHT22;54794;48.348;7.878;2023-04-24T16:43:44;17.00;50.30
68011;DHT22;54794;48.348;7.878;2023-04-24T16:46:17;17.00;50.20
68011;DHT22;54794;48.348;7.878;2023-04-24T16:48:44;16.60;50.10
68011;DHT22;54794;48.348;7.878;2023-04-24T16:51:26;16.80;50.30
68011;DHT22;54794;48.348;7.878;2023-04-24T16:53:58;16.80;50.30
68011;DHT22;54794;48.348;7.878;2023-04-24T16:56:27;16.70;50.40
68011;DHT22;54794;48.348;7.878;2023-04-24T16:58:54;16.70;50.40
68011;DHT22;54794;48.348;7.878;2023-04-24T17:01:23;16.70;50.50
68011;DHT22;54794;48.348;7.878;2023-04-24T17:03:51;16.70;50.60
68011;DHT22;54794;48.348;7.878;2023-04-24T17:06:18;16.60;50.60
68011;DHT22;54794;48.348;7.878;2023-04-24T17:08:45;16.60;50.70
68011;DHT22;54794;48.348;7.878;2023-04-24T17:11:13;16.60;50.80
68011;DHT22;54794;48.348;7.878;2023-04-24T17:13:40;16.60;50.90
68011;DHT22;54794;48.348;7.878;2023-04-24T17:16:07;16.60;50.90
68011;DHT22;54794;48.348;7.878;2023-04-24T17:18:34;16.60;50.70
68011;DHT22;54794;48.348;7.878;2023-04-24T17:21:01;16.60;50.60
68011;DHT22;54794;48.348;7.878;2023-04-24T17:23:28;16.60;50.50
68011;DHT22;54794;48.348;7.878;2023-04-24T17:25:54;16.50;50.40
68011;DHT22;54794;48.348;7.878;2023-04-24T17:28:28;16.50;50.50
68011;DHT22;54794;48.348;7.878;2023-04-24T17:31:00;16.50;50.20
68011;DHT22;54794;48.348;7.878;2023-04-24T17:33:28;16.50;51.00
68011;DHT22;54794;48.348;7.878;2023-04-24T17:35:59;16.50;50.70
68011;DHT22;54794;48.348;7.878;2023-04-24T17:38:34;16.50;50.80
68011;DHT22;54794;48.348;7.878;2023-04-24T17:41:01;16.50;50.90
68011;DHT22;54794;48.348;7.878;2023-04-24T17:43:28;16.50;50.80
68011;DHT22;54794;48.348;7.878;2023-04-24T17:49:00;16.40;50.40
68011;DHT22;54794;48.348;7.878;2023-04-24T17:51:36;16.50;50.80
68011;DHT22;54794;48.348;7.878;2023-04-24T17:54:05;16.50;50.80
68011;DHT22;54794;48.348;7.878;2023-04-24T17:56:32;16.50;50.80
68011;DHT22;54794;48.348;7.878;2023-04-24T17:59:00;16.50;50.70
68011;DHT22;54794;48.348;7.878;2023-04-24T18:01:27;16.40;50.70
68011;DHT22;54794;48.348;7.878;2023-04-24T18:03:57;16.40;51.30
68011;DHT22;54794;48.348;7.878;2023-04-24T18:06:55;16.40;50.70
68011;DHT22;54794;48.348;7.878;2023-04-24T18:11:04;16.30;50.50
68011;DHT22;54794;48.348;7.878;2023-04-24T18:14:17;16.40;50.60
68011;DHT22;54794;48.348;7.878;2023-04-24T18:20:26;16.30;50.90
68011;DHT22;54794;48.348;7.878;2023-04-24T18:23:18;16.30;51.00
68011;DHT22;54794;48.348;7.878;2023-04-24T18:25:58;16.40;51.20
68011;DHT22;54794;48.348;7.878;2023-04-24T18:28:40;16.20;51.20
68011;DHT22;54794;48.348;7.878;2023-04-24T18:31:21;16.30;51.20